Time;durP1;ratioP1;P1;durP2;ratioP2;P2;SDS_P1;SDS_P2;PMS_P1;PMS_P2;Temp;Humidity;BMP_temperature;BMP_pressure;BME280_temperature;BME280_humidity;BME280_pressure;Samples;Min_cycle;Max_cycle;Signal;HPM_P1;HPM_P2
2022/04/09 00:02:06;;;;;;;0.73;0.60;;;4.60;99.90;;;;;;5035461;28;20225;-73
2022/04/09 00:04:32;;;;;;;0.70;0.50;;;4.60;99.90;;;;;;5035528;28;20178;-73
2022/04/09 00:06:57;;;;;;;0.70;0.50;;;4.50;99.90;;;;;;5035778;28;20195;-74
2022/04/09 00:09:23;;;;;;;0.70;0.50;;;4.60;99.90;;;;;;5035594;28;20226;-74
2022/04/09 00:11:48;;;;;;;0.70;0.50;;;4.60;99.90;;;;;;5035220;28;20175;-73
2022/04/09 00:14:15;;;;;;;1.03;0.93;;;4.60;99.90;;;;;;5035557;28;20163;-73
2022/04/09 00:16:40;;;;;;;0.70;0.50;;;4.60;99.90;;;;;;5035322;28;20184;-73
2022/04/09 00:19:06;;;;;;;0.70;0.50;;;4.60;99.90;;;;;;5035453;28;20830;-74
2022/04/09 00:21:32;;;;;;;1.27;1.17;;;4.60;99.90;;;;;;5035134;28;20171;-74
2022/04/09 00:23:57;;;;;;;0.70;0.50;;;4.60;99.90;;;;;;5035436;28;20542;-74
2022/04/09 00:26:23;;;;;;;0.70;0.50;;;4.60;99.90;;;;;;5035276;28;20195;-74
2022/04/09 00:28:49;;;;;;;0.70;0.50;;;4.60;99.90;;;;;;5035416;28;20191;-74
2022/04/09 00:31:15;;;;;;;0.70;0.50;;;4.60;99.90;;;;;;5017116;28;20164;-74
2022/04/09 00:33:40;;;;;;;0.70;0.50;;;4.70;99.90;;;;;;5035127;28;20537;-73
2022/04/09 00:36:06;;;;;;;0.70;0.50;;;4.70;99.90;;;;;;5035154;28;20191;-73
2022/04/09 00:38:31;;;;;;;0.70;0.50;;;4.70;99.90;;;;;;5035098;28;20629;-73
2022/04/09 00:40:57;;;;;;;0.70;0.50;;;4.80;99.90;;;;;;5035094;28;20718;-73
2022/04/09 00:43:23;;;;;;;0.70;0.50;;;4.90;99.90;;;;;;5034588;28;20667;-73
2022/04/09 00:45:49;;;;;;;0.70;0.50;;;4.90;99.90;;;;;;5034963;28;20668;-73
2022/04/09 00:48:16;;;;;;;0.70;0.50;;;4.90;99.90;;;;;;5034809;28;20453;-73
2022/04/09 00:50:42;;;;;;;0.70;0.50;;;4.90;99.90;;;;;;5034916;28;20497;-74
2022/04/09 00:53:09;;;;;;;0.70;0.50;;;4.90;99.90;;;;;;5034514;28;20434;-73
2022/04/09 00:58:20;;;;;;;0.70;0.50;;;4.90;99.90;;;;;;5034831;28;20405;-73
2022/04/09 01:00:47;;;;;;;0.70;0.50;;;4.90;99.90;;;;;;5034740;28;20429;-73
2022/04/09 01:03:18;;;;;;;0.80;0.60;;;4.80;99.90;;;;;;5034442;28;20402;-73
2022/04/09 01:05:44;;;;;;;0.70;0.50;;;4.80;99.90;;;;;;5034631;28;20438;-73
2022/04/09 01:08:10;;;;;;;0.70;0.50;;;4.70;99.90;;;;;;5034462;28;20454;-73
2022/04/09 01:10:37;;;;;;;0.70;0.50;;;4.60;99.90;;;;;;5034250;28;20406;-73
2022/04/09 01:13:03;;;;;;;0.70;0.50;;;4.60;99.90;;;;;;5034166;28;20167;-74
2022/04/09 01:15:29;;;;;;;0.70;0.50;;;4.50;99.90;;;;;;5034353;28;20473;-74
2022/04/09 01:17:54;;;;;;;0.70;0.50;;;4.50;99.90;;;;;;5034313;28;20442;-74
2022/04/09 01:20:26;;;;;;;0.70;0.50;;;4.40;99.90;;;;;;5034461;28;20178;-73
2022/04/09 01:22:52;;;;;;;0.70;0.50;;;4.40;99.90;;;;;;5034095;28;20177;-73
2022/04/09 01:25:18;;;;;;;0.70;0.50;;;4.40;99.90;;;;;;5034082;28;20403;-73
2022/04/09 01:27:46;;;;;;;0.70;0.50;;;4.50;99.90;;;;;;5034061;28;20904;-73
2022/04/09 01:30:12;;;;;;;0.70;0.50;;;4.60;99.90;;;;;;5034177;28;20251;-73
2022/04/09 01:32:38;;;;;;;0.70;0.50;;;4.70;99.90;;;;;;5033926;28;20997;-73
2022/04/09 01:35:04;;;;;;;0.70;0.50;;;4.80;99.90;;;;;;5033899;28;20489;-73
2022/04/09 01:37:30;;;;;;;0.70;0.50;;;4.80;99.90;;;;;;5034091;28;20580;-73
2022/04/09 01:39:55;;;;;;;0.70;0.50;;;4.70;99.90;;;;;;5016192;28;20422;-73
2022/04/09 01:42:22;;;;;;;0.70;0.50;;;4.70;99.90;;;;;;5033681;28;20195;-73
2022/04/09 01:44:48;;;;;;;0.70;0.50;;;4.60;99.90;;;;;;5016035;28;20179;-73
2022/04/09 01:47:13;;;;;;;0.70;0.50;;;4.60;99.90;;;;;;5033765;28;20485;-73
2022/04/09 01:49:39;;;;;;;0.70;0.50;;;4.50;99.90;;;;;;5033660;28;20497;-73
2022/04/09 01:52:05;;;;;;;0.70;0.50;;;4.50;99.90;;;;;;5033543;28;20237;-73
2022/04/09 01:54:30;;;;;;;0.70;0.50;;;4.50;99.90;;;;;;5033877;28;20156;-73
2022/04/09 01:56:56;;;;;;;0.70;0.50;;;4.50;99.90;;;;;;5033598;28;20191;-73
2022/04/09 01:59:21;;;;;;;0.70;0.50;;;4.50;99.90;;;;;;5033457;28;20192;-73
2022/04/09 02:01:48;;;;;;;0.70;0.50;;;4.60;99.90;;;;;;5033375;28;20555;-73
2022/04/09 02:04:15;;;;;;;1.00;0.83;;;4.60;99.90;;;;;;5033499;28;20221;-73
2022/04/09 02:06:42;;;;;;;0.80;0.60;;;4.70;99.90;;;;;;5033412;28;20529;-73
2022/04/09 02:09:11;;;;;;;0.70;0.50;;;4.80;99.90;;;;;;5033340;28;20903;-73
2022/04/09 02:11:39;;;;;;;0.70;0.50;;;4.90;99.90;;;;;;5015248;28;20407;-73
2022/04/09 02:14:04;;;;;;;0.70;0.40;;;5.00;99.90;;;;;;5033475;28;20409;-73
2022/04/09 02:16:30;;;;;;;0.70;0.50;;;5.10;99.90;;;;;;5033159;28;20435;-73
2022/04/09 02:18:56;;;;;;;0.70;0.50;;;5.10;99.90;;;;;;5033349;28;20164;-73
2022/04/09 02:21:21;;;;;;;0.80;0.70;;;5.10;99.90;;;;;;5032328;28;20460;-73
2022/04/09 02:23:47;;;;;;;0.80;0.60;;;5.10;99.90;;;;;;5033028;28;20172;-73
2022/04/09 02:26:13;;;;;;;0.70;0.50;;;5.00;99.90;;;;;;5032973;28;20196;-73
2022/04/09 02:28:38;;;;;;;0.70;0.60;;;4.90;99.90;;;;;;5033025;28;20199;-74
2022/04/09 02:31:04;;;;;;;0.70;0.50;;;4.90;99.90;;;;;;5033021;28;20174;-73
2022/04/09 02:33:29;;;;;;;0.70;0.50;;;4.80;99.90;;;;;;5032741;28;20171;-73
2022/04/09 02:35:55;;;;;;;0.70;0.50;;;4.80;99.90;;;;;;5032894;28;20187;-73
2022/04/09 02:38:20;;;;;;;0.70;0.50;;;4.70;99.90;;;;;;5032907;28;20543;-73
2022/04/09 02:40:46;;;;;;;0.70;0.50;;;4.70;99.90;;;;;;5015312;28;20167;-74
2022/04/09 02:43:11;;;;;;;0.70;0.50;;;4.70;99.90;;;;;;5032571;28;20194;-73
2022/04/09 02:45:37;;;;;;;0.70;0.50;;;4.70;99.90;;;;;;5032667;28;20190;-73
2022/04/09 02:48:03;;;;;;;0.70;0.50;;;4.70;99.90;;;;;;5032733;28;20191;-73
2022/04/09 02:50:29;;;;;;;0.70;0.47;;;4.70;99.90;;;;;;5014976;28;20171;-73
2022/04/09 02:52:54;;;;;;;0.70;0.50;;;4.70;99.90;;;;;;5032310;28;20406;-73
2022/04/09 02:55:20;;;;;;;0.70;0.50;;;4.60;99.90;;;;;;5032524;28;20272;-73
2022/04/09 02:57:45;;;;;;;4.60;2.03;;;4.60;99.90;;;;;;5032557;28;20831;-73
2022/04/09 03:00:12;;;;;;;0.70;0.50;;;4.60;99.90;;;;;;5014779;28;20183;-74
2022/04/09 03:02:39;;;;;;;1.10;0.70;;;4.50;99.90;;;;;;5032188;28;20194;-73
2022/04/09 03:05:06;;;;;;;0.70;0.60;;;4.50;99.90;;;;;;5032425;28;20402;-73
2022/04/09 03:07:32;;;;;;;0.70;0.50;;;4.50;99.90;;;;;;5014896;28;20924;-73
2022/04/09 03:09:57;;;;;;;0.70;0.50;;;4.50;99.90;;;;;;5032345;28;20504;-73
2022/04/09 03:12:23;;;;;;;0.70;0.50;;;4.60;99.90;;;;;;5032052;28;20189;-73
2022/04/09 03:14:48;;;;;;;0.70;0.50;;;4.70;99.90;;;;;;5032221;28;20198;-73
2022/04/09 03:17:14;;;;;;;0.70;0.50;;;4.80;99.90;;;;;;5032180;28;20211;-73
2022/04/09 03:19:40;;;;;;;0.70;0.50;;;4.80;99.90;;;;;;5032207;28;20167;-73
2022/04/09 03:22:05;;;;;;;1.17;1.07;;;4.80;99.90;;;;;;5014102;28;20176;-73
2022/04/09 03:24:31;;;;;;;0.70;0.50;;;4.80;99.90;;;;;;5032139;28;20171;-74
2022/04/09 03:26:56;;;;;;;0.70;0.50;;;4.90;99.90;;;;;;5014296;28;20302;-73
2022/04/09 03:29:22;;;;;;;1.17;0.60;;;4.90;99.90;;;;;;5032047;28;20203;-73
2022/04/09 03:31:47;;;;;;;1.23;1.13;;;4.90;99.90;;;;;;5031928;28;20310;-74
2022/04/09 03:34:13;;;;;;;0.70;0.50;;;4.90;99.90;;;;;;5014300;28;20167;-73
2022/04/09 03:36:39;;;;;;;0.80;0.63;;;4.90;99.90;;;;;;5014153;28;20680;-74
2022/04/09 03:39:05;;;;;;;0.70;0.50;;;4.90;99.90;;;;;;5031550;28;20182;-73
2022/04/09 03:41:30;;;;;;;0.70;0.50;;;4.90;99.90;;;;;;5031778;28;20586;-73
2022/04/09 03:43:56;;;;;;;0.70;0.50;;;4.90;99.90;;;;;;5031783;28;20417;-73
2022/04/09 03:46:21;;;;;;;0.80;0.80;;;5.00;99.90;;;;;;5031927;28;20192;-73
2022/04/09 03:48:47;;;;;;;0.70;0.40;;;5.10;99.90;;;;;;5031816;28;20202;-73
2022/04/09 03:51:12;;;;;;;0.70;0.50;;;5.10;99.90;;;;;;5014170;28;20171;-73
2022/04/09 03:53:38;;;;;;;1.10;0.90;;;5.10;99.90;;;;;;5031645;28;20206;-73
2022/04/09 03:56:04;;;;;;;0.70;0.50;;;5.20;99.90;;;;;;5031933;28;20728;-73
2022/04/09 03:58:30;;;;;;;0.70;0.60;;;5.20;99.90;;;;;;5031774;28;20422;-73
2022/04/09 04:00:56;;;;;;;1.10;1.00;;;5.20;99.90;;;;;;5031746;28;20615;-73
2022/04/09 04:03:22;;;;;;;0.70;0.50;;;5.30;99.90;;;;;;5031488;28;20179;-73
2022/04/09 04:05:48;;;;;;;0.80;0.70;;;5.30;99.90;;;;;;5014007;28;20477;-73
2022/04/09 04:08:14;;;;;;;0.70;0.50;;;5.30;99.90;;;;;;5031628;28;20195;-74
2022/04/09 04:10:40;;;;;;;0.70;0.50;;;5.40;99.90;;;;;;5031593;28;20402;-73
2022/04/09 04:13:06;;;;;;;0.80;0.60;;;5.30;99.90;;;;;;5013675;28;20463;-73
2022/04/09 04:15:32;;;;;;;0.70;0.50;;;5.30;99.90;;;;;;5031490;28;20426;-73
2022/04/09 04:17:58;;;;;;;0.70;0.50;;;5.20;99.90;;;;;;5031625;28;20406;-74
2022/04/09 04:20:24;;;;;;;0.70;0.50;;;5.20;99.90;;;;;;5013839;28;20472;-73
2022/04/09 04:22:51;;;;;;;0.70;0.53;;;5.20;99.90;;;;;;5013546;28;20411;-73
2022/04/09 04:25:17;;;;;;;0.70;0.50;;;5.20;99.90;;;;;;5013711;28;20175;-73
2022/04/09 04:27:45;;;;;;;0.70;0.50;;;5.30;99.90;;;;;;5031470;28;20456;-73
2022/04/09 04:30:11;;;;;;;0.70;0.50;;;5.30;99.90;;;;;;5031495;28;20569;-73
2022/04/09 04:32:36;;;;;;;0.70;0.50;;;5.30;99.90;;;;;;5013557;28;20414;-73
2022/04/09 04:35:02;;;;;;;0.70;0.50;;;5.30;99.90;;;;;;5031228;28;20918;-73
2022/04/09 04:37:43;;;;;;;3.13;0.93;;;5.30;99.90;;;;;;5031466;28;20505;-73
2022/04/09 04:40:10;;;;;;;0.70;0.50;;;5.40;99.90;;;;;;5031393;28;20414;-73
2022/04/09 04:42:36;;;;;;;0.70;0.43;;;5.40;99.90;;;;;;5031214;28;20403;-73
2022/04/09 04:45:03;;;;;;;0.70;0.50;;;5.40;99.90;;;;;;5032254;28;20406;-73
2022/04/09 04:47:28;;;;;;;0.70;0.47;;;5.30;99.90;;;;;;5034999;28;20633;-73
2022/04/09 04:49:54;;;;;;;0.70;0.50;;;5.20;99.90;;;;;;5017023;28;20458;-73
2022/04/09 04:52:19;;;;;;;0.70;0.50;;;5.20;99.90;;;;;;5034635;28;20179;-73
2022/04/09 04:54:45;;;;;;;0.70;0.50;;;5.10;99.90;;;;;;5034792;28;20176;-73
2022/04/09 04:57:10;;;;;;;0.70;0.50;;;5.00;99.90;;;;;;5034891;28;20187;-73
2022/04/09 04:59:36;;;;;;;0.70;0.50;;;5.00;99.90;;;;;;5034647;28;20609;-73
2022/04/09 05:02:02;;;;;;;1.83;1.73;;;4.90;99.90;;;;;;5034505;28;20167;-73
2022/04/09 05:04:28;;;;;;;0.70;0.50;;;4.90;99.90;;;;;;5034622;28;20476;-75
2022/04/09 05:06:53;;;;;;;0.70;0.50;;;4.80;99.90;;;;;;5016752;28;20195;-74
2022/04/09 05:09:19;;;;;;;0.70;0.50;;;4.80;99.90;;;;;;5034743;28;20279;-73
2022/04/09 05:11:45;;;;;;;0.70;0.50;;;4.70;99.90;;;;;;5034270;28;20171;-73
2022/04/09 05:14:11;;;;;;;0.70;0.50;;;4.70;99.90;;;;;;5034574;28;20705;-73
2022/04/09 05:16:37;;;;;;;0.70;0.47;;;4.60;99.90;;;;;;5034372;28;20187;-73
2022/04/09 05:19:03;;;;;;;0.70;0.40;;;4.60;99.90;;;;;;5034379;28;20564;-73
2022/04/09 05:21:29;;;;;;;0.70;0.50;;;4.60;99.90;;;;;;5034400;28;20175;-73
2022/04/09 05:23:54;;;;;;;0.80;0.60;;;4.60;99.90;;;;;;5016343;28;20463;-74
2022/04/09 05:26:20;;;;;;;0.70;0.50;;;4.70;99.90;;;;;;5034270;28;20195;-73
2022/04/09 05:28:45;;;;;;;0.70;0.50;;;4.70;99.90;;;;;;5016571;28;20195;-73
2022/04/09 05:31:12;;;;;;;0.70;0.47;;;4.70;99.90;;;;;;5034220;28;20538;-73
2022/04/09 05:33:38;;;;;;;0.87;0.87;;;4.70;99.90;;;;;;5033958;28;20536;-73
2022/04/09 05:36:05;;;;;;;0.87;0.87;;;4.70;99.90;;;;;;5034026;28;20572;-73
2022/04/09 05:38:31;;;;;;;0.70;0.50;;;4.70;99.90;;;;;;5034390;28;20489;-73
2022/04/09 05:40:57;;;;;;;0.70;0.50;;;4.60;99.90;;;;;;5033942;28;20845;-73
2022/04/09 05:43:23;;;;;;;0.70;0.50;;;4.70;99.90;;;;;;5033836;28;20410;-73
2022/04/09 05:45:50;;;;;;;0.70;0.50;;;4.80;99.90;;;;;;5033906;28;20492;-73
2022/04/09 05:48:15;;;;;;;0.70;0.60;;;4.90;99.90;;;;;;5033736;28;20508;-73
2022/04/09 05:50:41;;;;;;;0.70;0.50;;;4.90;99.90;;;;;;5033893;28;20806;-73
2022/04/09 05:53:06;;;;;;;0.70;0.47;;;4.90;99.90;;;;;;5033658;28;20226;-73
2022/04/09 05:55:32;;;;;;;0.80;0.70;;;4.90;99.90;;;;;;5033667;28;20184;-73
2022/04/09 05:57:58;;;;;;;0.70;0.50;;;4.90;99.90;;;;;;5032700;28;20168;-73
2022/04/09 06:00:23;;;;;;;0.70;0.60;;;5.00;99.90;;;;;;5033673;28;20222;-74
2022/04/09 06:02:49;;;;;;;1.43;1.33;;;5.30;99.90;;;;;;5033297;28;20699;-73
2022/04/09 06:05:14;;;;;;;0.90;0.77;;;5.70;99.90;;;;;;5033183;28;20513;-74
2022/04/09 06:07:40;;;;;;;0.70;0.50;;;6.20;99.90;;;;;;5033542;28;20226;-73
2022/04/09 06:10:08;;;;;;;0.70;0.50;;;6.70;99.90;;;;;;5033361;28;20604;-73
2022/04/09 06:12:34;;;;;;;0.70;0.60;;;7.20;99.90;;;;;;5033219;28;20593;-73
2022/04/09 06:15:02;;;;;;;0.70;0.53;;;7.50;99.90;;;;;;5033384;28;20493;-73
2022/04/09 06:17:27;;;;;;;0.70;0.50;;;7.80;99.90;;;;;;5033483;28;20464;-73
2022/04/09 06:19:53;;;;;;;0.70;0.50;;;8.30;99.90;;;;;;5015789;28;20411;-74
2022/04/09 06:22:19;;;;;;;0.70;0.60;;;8.90;99.90;;;;;;5033037;28;20254;-73
2022/04/09 06:24:44;;;;;;;0.70;0.50;;;9.20;99.90;;;;;;5033339;28;20821;-73
2022/04/09 06:27:13;;;;;;;0.70;0.50;;;9.70;99.90;;;;;;5033144;28;20187;-73
2022/04/09 06:29:39;;;;;;;0.70;0.50;;;10.20;99.90;;;;;;5033117;28;20191;-73
2022/04/09 06:32:05;;;;;;;0.80;0.60;;;10.70;99.90;;;;;;5032834;28;20394;-73
2022/04/09 06:34:31;;;;;;;0.70;0.50;;;11.20;99.90;;;;;;5033090;28;20160;-73
2022/04/09 06:36:56;;;;;;;0.80;0.70;;;11.80;99.90;;;;;;5032973;28;20430;-74
2022/04/09 06:39:23;;;;;;;1.97;1.70;;;12.20;99.90;;;;;;5032956;28;20167;-74
2022/04/09 06:41:49;;;;;;;0.70;0.50;;;12.60;99.90;;;;;;5032775;28;20168;-73
2022/04/09 06:44:15;;;;;;;0.80;0.60;;;13.10;99.90;;;;;;5032738;28;20399;-74
2022/04/09 06:46:43;;;;;;;1.03;0.80;;;13.50;99.90;;;;;;5032835;28;20476;-74
2022/04/09 06:49:11;;;;;;;1.67;0.70;;;14.00;99.90;;;;;;5032598;28;20469;-74
2022/04/09 06:51:38;;;;;;;1.77;1.63;;;14.50;99.90;;;;;;5032861;28;20468;-74
2022/04/09 06:54:03;;;;;;;0.80;0.50;;;15.00;99.90;;;;;;5032605;28;20464;-74
2022/04/09 06:56:29;;;;;;;0.80;0.70;;;15.40;99.90;;;;;;5032637;28;20423;-74
2022/04/09 06:58:54;;;;;;;0.80;0.67;;;15.90;99.90;;;;;;5032593;28;20171;-74
2022/04/09 07:01:20;;;;;;;0.80;0.60;;;16.60;96.00;;;;;;5032840;28;20175;-74
2022/04/09 07:03:45;;;;;;;0.80;0.60;;;17.40;93.10;;;;;;5032381;28;20186;-74
2022/04/09 07:06:13;;;;;;;0.80;0.50;;;17.50;77.10;;;;;;5032540;28;20192;-74
2022/04/09 07:08:39;;;;;;;0.90;0.70;;;17.30;76.60;;;;;;5032214;28;20266;-74
2022/04/09 07:11:05;;;;;;;0.80;0.50;;;16.90;76.10;;;;;;5032811;28;20953;-74
2022/04/09 07:13:31;;;;;;;3.70;0.80;;;16.60;74.00;;;;;;5032124;28;20486;-74
2022/04/09 07:15:57;;;;;;;7.70;0.70;;;16.30;73.90;;;;;;5014740;28;20191;-74
2022/04/09 07:18:23;;;;;;;1.13;1.00;;;16.00;75.50;;;;;;5032310;28;20413;-74
2022/04/09 07:20:48;;;;;;;1.00;0.90;;;15.60;75.00;;;;;;5032351;28;20399;-73
2022/04/09 07:23:14;;;;;;;1.10;0.90;;;15.00;74.70;;;;;;5032013;28;20190;-74
2022/04/09 07:25:42;;;;;;;1.03;0.70;;;14.50;77.60;;;;;;5032130;28;20278;-74
2022/04/09 07:28:08;;;;;;;0.70;0.50;;;14.50;82.30;;;;;;5014408;28;20419;-74
2022/04/09 07:30:33;;;;;;;12.50;0.80;;;14.60;84.70;;;;;;5014526;28;20493;-74
2022/04/09 07:32:59;;;;;;;0.80;0.60;;;14.70;86.00;;;;;;5031907;28;20394;-74
2022/04/09 07:35:26;;;;;;;1.73;1.63;;;14.50;82.90;;;;;;5032086;28;20179;-74
2022/04/09 07:37:55;;;;;;;1.40;1.00;;;14.10;84.40;;;;;;5032196;28;20187;-74
2022/04/09 07:40:24;;;;;;;1.50;1.40;;;14.60;91.30;;;;;;5032275;28;20424;-74
2022/04/09 07:42:50;;;;;;;0.77;0.50;;;15.80;88.90;;;;;;5031884;28;20922;-74
2022/04/09 07:45:16;;;;;;;1.20;0.90;;;16.90;80.20;;;;;;5031994;28;20920;-74
2022/04/09 07:47:43;;;;;;;0.80;0.50;;;17.80;75.00;;;;;;5032090;28;20488;-74
2022/04/09 07:50:10;;;;;;;0.80;0.70;;;18.70;72.10;;;;;;5032204;28;20231;-74
2022/04/09 07:52:40;;;;;;;2.13;0.87;;;19.60;66.70;;;;;;5031850;28;20412;-74
2022/04/09 07:55:07;;;;;;;0.90;0.80;;;20.80;65.80;;;;;;5031821;28;20919;-75
2022/04/09 07:57:32;;;;;;;0.80;0.50;;;21.80;60.30;;;;;;5031887;28;20406;-74
2022/04/09 07:59:58;;;;;;;2.20;1.00;;;22.40;56.30;;;;;;5014061;28;20444;-74
2022/04/09 08:02:25;;;;;;;1.43;1.33;;;23.10;55.10;;;;;;5031577;28;20226;-74
2022/04/09 08:04:50;;;;;;;1.13;0.90;;;23.30;53.10;;;;;;5031792;28;20168;-74
2022/04/09 08:07:16;;;;;;;7.53;2.80;;;23.40;52.00;;;;;;5014029;28;20438;-75
2022/04/09 08:09:44;;;;;;;2.23;1.33;;;23.80;51.30;;;;;;5031693;28;20191;-74
2022/04/09 08:12:12;;;;;;;0.87;0.60;;;24.40;50.70;;;;;;5031587;28;20402;-74
2022/04/09 08:14:38;;;;;;;0.80;0.60;;;25.00;49.10;;;;;;5031729;28;20406;-74
2022/04/09 08:17:04;;;;;;;0.80;0.60;;;25.50;47.70;;;;;;5031626;28;20426;-74
2022/04/09 08:19:29;;;;;;;2.73;0.83;;;26.10;46.80;;;;;;5031847;28;20763;-74
2022/04/09 08:21:56;;;;;;;1.40;1.30;;;26.70;45.80;;;;;;5035433;28;20249;-74
2022/04/09 08:24:21;;;;;;;1.47;0.80;;;26.40;44.10;;;;;;5035305;28;20160;-74
2022/04/09 08:26:47;;;;;;;2.80;1.57;;;25.40;43.20;;;;;;5035376;28;20432;-74
2022/04/09 08:29:18;;;;;;;1.30;1.07;;;24.00;43.30;;;;;;5035308;28;20582;-75
2022/04/09 08:31:47;;;;;;;0.90;0.77;;;23.00;44.00;;;;;;5035275;28;20164;-74
2022/04/09 08:34:12;;;;;;;0.80;0.60;;;22.60;45.60;;;;;;5035271;28;20983;-74
2022/04/09 08:36:38;;;;;;;1.20;0.67;;;22.20;46.10;;;;;;5035216;28;20505;-74
2022/04/09 08:39:03;;;;;;;1.50;0.70;;;21.70;46.00;;;;;;5017331;28;20171;-74
2022/04/09 08:41:30;;;;;;;0.80;0.70;;;21.10;46.60;;;;;;5035166;28;20171;-74
2022/04/09 08:43:55;;;;;;;0.80;0.70;;;21.30;47.70;;;;;;5034821;28;20255;-75
2022/04/09 08:46:25;;;;;;;0.80;0.60;;;22.50;48.10;;;;;;5034957;28;20517;-74
2022/04/09 08:48:51;;;;;;;2.60;1.77;;;24.10;46.70;;;;;;5034844;28;20272;-75
2022/04/09 08:51:16;;;;;;;1.17;0.63;;;25.40;45.50;;;;;;5017107;28;20422;-75
2022/04/09 08:53:43;;;;;;;3.27;1.60;;;26.70;43.90;;;;;;5016895;28;20221;-75
2022/04/09 08:56:11;;;;;;;1.00;0.80;;;27.50;42.30;;;;;;5034938;28;20188;-75
2022/04/09 08:58:36;;;;;;;1.20;1.00;;;28.50;40.70;;;;;;5034912;28;20774;-75
2022/04/09 09:01:02;;;;;;;1.97;1.77;;;29.50;39.70;;;;;;5016883;28;20421;-75
2022/04/09 09:03:27;;;;;;;1.20;1.10;;;30.50;38.60;;;;;;5034528;28;20164;-75
2022/04/09 09:05:53;;;;;;;1.30;0.80;;;31.40;37.90;;;;;;5016932;28;20676;-75
2022/04/09 09:08:42;;;;;;;2.27;0.80;;;32.40;37.00;;;;;;5034525;28;20199;-75
2022/04/09 09:11:08;;;;;;;1.20;0.80;;;33.20;35.50;;;;;;5034669;28;20167;-75
2022/04/09 09:13:48;;;;;;;1.00;0.80;;;33.00;34.00;;;;;;5034274;28;20410;-75
2022/04/09 09:16:28;;;;;;;3.57;0.90;;;33.40;33.20;;;;;;5034440;28;20188;-75
2022/04/09 09:18:55;;;;;;;2.00;1.90;;;34.10;32.40;;;;;;5034507;28;20456;-75
2022/04/09 09:21:23;;;;;;;2.10;1.30;;;34.50;31.60;;;;;;5034403;28;20406;-75
2022/04/09 09:23:51;;;;;;;4.57;1.23;;;35.00;31.20;;;;;;5034113;28;20406;-76
2022/04/09 09:26:21;;;;;;;7.80;1.33;;;35.60;31.20;;;;;;5034270;28;20434;-75
2022/04/09 09:28:56;;;;;;;1.20;0.90;;;36.00;30.60;;;;;;5034188;28;20978;-75
2022/04/09 09:31:43;;;;;;;1.00;0.80;;;36.00;29.80;;;;;;5034595;28;20899;-75
2022/04/09 09:34:16;;;;;;;1.47;1.37;;;35.80;29.20;;;;;;5033975;28;20492;-75
2022/04/09 09:36:46;;;;;;;1.93;1.17;;;35.70;28.90;;;;;;5034074;28;20789;-75
2022/04/09 09:39:22;;;;;;;0.90;0.80;;;34.30;28.80;;;;;;5034045;28;20492;-75
2022/04/09 09:42:02;;;;;;;1.37;0.90;;;33.20;29.50;;;;;;5034075;28;20398;-74
2022/04/09 09:44:32;;;;;;;1.10;1.00;;;33.00;29.10;;;;;;5015999;28;20495;-75
2022/04/09 09:47:09;;;;;;;3.80;1.10;;;32.60;29.60;;;;;;5033825;28;20422;-75
2022/04/09 09:49:55;;;;;;;2.30;1.07;;;33.60;29.10;;;;;;5033702;28;20453;-75
2022/04/09 09:52:32;;;;;;;1.00;0.67;;;34.10;28.80;;;;;;5032905;28;20466;-74
2022/04/09 09:55:02;;;;;;;1.03;0.90;;;32.60;28.20;;;;;;5033299;28;20402;-74
2022/04/09 09:57:29;;;;;;;1.33;0.97;;;31.90;28.50;;;;;;5033686;28;20401;-75
2022/04/09 10:00:01;;;;;;;1.00;0.90;;;32.70;29.10;;;;;;5033448;28;20425;-75
2022/04/09 10:02:27;;;;;;;0.90;0.80;;;34.30;28.70;;;;;;5033333;28;20406;-75
2022/04/09 10:04:54;;;;;;;1.30;0.97;;;35.10;28.40;;;;;;5015842;28;20414;-75
2022/04/09 10:07:20;;;;;;;1.13;1.03;;;36.30;28.60;;;;;;5033580;28;20268;-75
2022/04/09 10:09:49;;;;;;;1.00;0.90;;;37.00;27.80;;;;;;5033422;28;20450;-75
2022/04/09 10:12:20;;;;;;;1.30;1.10;;;37.90;27.20;;;;;;5033262;28;20411;-75
2022/04/09 10:14:55;;;;;;;3.00;0.80;;;37.70;26.10;;;;;;5033358;28;20445;-75
2022/04/09 10:17:22;;;;;;;1.10;0.90;;;38.10;26.60;;;;;;5033385;28;20424;-76
2022/04/09 10:20:01;;;;;;;0.93;0.73;;;37.20;25.90;;;;;;5033335;28;20456;-75
2022/04/09 10:22:43;;;;;;;1.00;0.70;;;35.30;26.00;;;;;;5033074;28;20497;-76
2022/04/09 10:25:09;;;;;;;1.10;0.80;;;33.50;26.30;;;;;;5033185;28;20410;-75
2022/04/09 10:27:35;;;;;;;1.10;0.80;;;31.70;27.00;;;;;;5033189;28;20414;-75
2022/04/09 10:30:04;;;;;;;1.00;0.70;;;31.70;27.90;;;;;;5033051;28;20191;-75
2022/04/09 10:32:43;;;;;;;2.50;1.00;;;31.10;27.70;;;;;;5032885;28;20460;-74
2022/04/09 10:35:24;;;;;;;1.10;0.70;;;29.90;27.90;;;;;;5032971;28;20402;-75
2022/04/09 10:38:17;;;;;;;3.93;0.87;;;30.70;28.70;;;;;;5032822;28;20402;-75
2022/04/09 10:40:42;;;;;;;1.63;0.93;;;32.50;28.80;;;;;;5032920;28;20403;-75
2022/04/09 10:43:20;;;;;;;0.90;0.80;;;32.90;27.50;;;;;;5032067;28;20398;-75
2022/04/09 10:46:01;;;;;;;1.00;0.70;;;32.00;27.30;;;;;;5032787;28;20249;-76
2022/04/09 10:48:29;;;;;;;1.23;1.13;;;33.30;28.20;;;;;;5032736;28;20449;-75
2022/04/09 10:51:04;;;;;;;1.30;1.00;;;35.20;27.90;;;;;;5015142;28;20481;-76
2022/04/09 10:53:44;;;;;;;0.90;0.80;;;36.70;26.90;;;;;;5032624;28;20398;-76
2022/04/09 10:56:24;;;;;;;1.80;1.13;;;37.50;26.70;;;;;;5014908;28;20547;-76
2022/04/09 10:59:06;;;;;;;1.10;1.00;;;39.00;25.80;;;;;;5032475;28;20410;-76
2022/04/09 11:01:46;;;;;;;1.20;1.00;;;39.90;24.90;;;;;;5032704;28;20413;-75
2022/04/09 11:04:35;;;;;;;2.90;0.80;;;39.70;24.20;;;;;;5032228;28;20792;-76
2022/04/09 11:07:01;;;;;;;1.73;1.20;;;38.10;24.40;;;;;;5032311;28;20430;-75
2022/04/09 11:09:58;;;;;;;1.70;1.20;;;38.30;25.10;;;;;;5032296;28;20453;-75
2022/04/09 11:12:33;;;;;;;2.30;1.20;;;39.10;24.50;;;;;;5032017;28;20410;-75
2022/04/09 11:15:00;;;;;;;1.43;1.33;;;39.00;24.40;;;;;;5032292;28;20544;-76
2022/04/09 11:17:32;;;;;;;1.47;0.93;;;39.10;23.90;;;;;;5032130;28;20446;-76
2022/04/09 11:20:09;;;;;;;1.13;1.03;;;39.30;24.00;;;;;;5032224;28;20745;-76
2022/04/09 11:22:37;;;;;;;2.07;1.20;;;39.70;24.50;;;;;;5032002;28;20398;-76
2022/04/09 11:25:07;;;;;;;1.50;1.37;;;40.40;24.20;;;;;;5014355;28;20935;-76
2022/04/09 11:27:33;;;;;;;1.37;1.27;;;41.00;23.70;;;;;;5031693;28;20892;-76
2022/04/09 11:29:59;;;;;;;1.30;1.10;;;41.50;23.40;;;;;;5014431;28;20421;-76
2022/04/09 11:32:26;;;;;;;1.50;1.40;;;41.90;23.40;;;;;;5031354;28;20199;-76
2022/04/09 11:35:04;;;;;;;6.60;1.80;;;42.20;22.70;;;;;;5032018;28;20405;-76
2022/04/09 11:37:30;;;;;;;0.93;0.83;;;42.20;22.70;;;;;;5032041;28;20460;-76
2022/04/09 11:39:57;;;;;;;0.90;0.80;;;41.00;21.80;;;;;;5014283;28;20466;-75
2022/04/09 11:42:24;;;;;;;1.07;0.80;;;38.30;21.00;;;;;;5031634;28;20218;-75
2022/04/09 11:44:50;;;;;;;1.10;0.87;;;35.30;21.90;;;;;;5014116;28;20460;-75
2022/04/09 11:47:17;;;;;;;1.00;0.87;;;32.70;23.30;;;;;;5031888;28;20501;-75
2022/04/09 11:49:45;;;;;;;1.20;1.10;;;30.30;24.40;;;;;;5032044;28;20406;-74
2022/04/09 11:52:11;;;;;;;0.90;0.70;;;27.80;26.40;;;;;;5031817;28;20430;-74
2022/04/09 11:54:43;;;;;;;1.00;0.83;;;25.50;28.50;;;;;;5032076;28;20850;-74
2022/04/09 11:57:11;;;;;;;1.00;0.70;;;23.30;29.90;;;;;;5036006;28;20422;-74
2022/04/09 11:59:37;;;;;;;0.90;0.60;;;21.50;31.40;;;;;;5035816;28;20464;-74
2022/04/09 12:02:03;;;;;;;1.23;1.13;;;19.80;31.60;;;;;;5035945;28;20456;-74
2022/04/09 12:04:34;;;;;;;1.10;0.90;;;19.30;34.00;;;;;;5017866;28;20915;-74
2022/04/09 12:07:02;;;;;;;0.90;0.70;;;21.20;36.60;;;;;;5035781;28;20422;-74
2022/04/09 12:09:29;;;;;;;1.37;1.27;;;24.60;37.10;;;;;;5036177;28;20403;-75
2022/04/09 12:11:54;;;;;;;12.23;1.20;;;28.20;34.30;;;;;;5035773;28;20398;-75
2022/04/09 12:14:20;;;;;;;1.00;0.90;;;31.20;30.80;;;;;;5035449;28;20487;-75
2022/04/09 12:16:49;;;;;;;1.97;1.00;;;34.00;28.90;;;;;;5035667;28;20187;-75
2022/04/09 12:19:15;;;;;;;1.20;0.90;;;36.30;26.60;;;;;;5035541;28;20187;-75
2022/04/09 12:21:41;;;;;;;1.77;1.47;;;38.10;25.60;;;;;;5035553;28;20455;-75
2022/04/09 12:24:09;;;;;;;0.93;0.70;;;39.90;24.50;;;;;;5035203;28;20167;-75
2022/04/09 12:26:37;;;;;;;0.90;0.80;;;40.70;23.40;;;;;;5035374;28;20425;-76
2022/04/09 12:29:24;;;;;;;1.30;1.20;;;41.30;23.70;;;;;;5035494;28;20500;-76
2022/04/09 12:31:51;;;;;;;0.90;0.80;;;41.90;23.10;;;;;;5035391;28;20464;-75
2022/04/09 12:34:18;;;;;;;2.33;1.13;;;42.00;22.70;;;;;;5035005;28;20413;-76
2022/04/09 12:37:00;;;;;;;1.00;0.90;;;42.40;22.80;;;;;;5035567;28;20939;-74
2022/04/09 12:39:27;;;;;;;1.13;1.03;;;42.20;22.40;;;;;;5035121;28;20465;-74
2022/04/09 12:41:53;;;;;;;1.20;1.10;;;42.70;23.00;;;;;;5035246;28;20471;-76
2022/04/09 12:44:33;;;;;;;1.10;0.90;;;43.40;22.60;;;;;;5034925;28;20896;-76
2022/04/09 12:46:59;;;;;;;1.03;0.93;;;44.00;22.60;;;;;;5035062;28;20690;-76
2022/04/09 12:49:43;;;;;;;1.30;1.20;;;44.90;22.70;;;;;;5035081;28;20413;-77
2022/04/09 12:52:10;;;;;;;1.83;0.90;;;45.60;22.10;;;;;;5035135;28;20755;-75
2022/04/09 12:54:36;;;;;;;1.20;1.10;;;46.20;21.80;;;;;;5034620;28;20406;-74
2022/04/09 12:57:19;;;;;;;2.30;1.10;;;46.50;21.20;;;;;;5034904;28;20775;-74
2022/04/09 12:59:45;;;;;;;1.20;1.10;;;46.20;20.60;;;;;;5034708;28;20464;-73